sensor_id;sensor_type;location;lat;lon;timestamp;pressure;altitude;pressure_sealevel;temperature;humidity
33075;BME280;19433;51.292;6.868;2022-09-01T00:01:22;100828.75;;;15.32;69.76
33075;BME280;19433;51.292;6.868;2022-09-01T00:03:51;100827.25;;;15.29;70.15
33075;BME280;19433;51.292;6.868;2022-09-01T00:06:21;100826.88;;;15.26;70.08
33075;BME280;19433;51.292;6.868;2022-09-01T00:08:52;100831.19;;;15.22;71.03
33075;BME280;19433;51.292;6.868;2022-09-01T00:11:19;100822.03;;;15.14;70.73
33075;BME280;19433;51.292;6.868;2022-09-01T00:13:46;100829.25;;;15.22;70.39
33075;BME280;19433;51.292;6.868;2022-09-01T00:16:12;100830.38;;;15.14;71.66
33075;BME280;19433;51.292;6.868;2022-09-01T00:18:41;100821.56;;;15.18;71.01
33075;BME280;19433;51.292;6.868;2022-09-01T00:21:09;100827.75;;;15.26;71.10
33075;BME280;19433;51.292;6.868;2022-09-01T00:23:35;100831.72;;;15.37;71.29
33075;BME280;19433;51.292;6.868;2022-09-01T00:26:01;100830.19;;;15.41;71.60
33075;BME280;19433;51.292;6.868;2022-09-01T00:28:26;100837.16;;;15.50;70.40
33075;BME280;19433;51.292;6.868;2022-09-01T00:30:52;100827.44;;;15.59;70.37
33075;BME280;19433;51.292;6.868;2022-09-01T00:33:17;100830.00;;;15.61;70.09
33075;BME280;19433;51.292;6.868;2022-09-01T00:35:43;100825.69;;;15.65;69.96
33075;BME280;19433;51.292;6.868;2022-09-01T00:38:08;100825.25;;;15.68;70.03
33075;BME280;19433;51.292;6.868;2022-09-01T00:40:33;100824.41;;;15.67;69.94
33075;BME280;19433;51.292;6.868;2022-09-01T00:42:59;100823.09;;;15.70;69.89
33075;BME280;19433;51.292;6.868;2022-09-01T00:45:24;100819.84;;;15.73;69.93
33075;BME280;19433;51.292;6.868;2022-09-01T00:47:50;100816.56;;;15.76;69.88
33075;BME280;19433;51.292;6.868;2022-09-01T00:50:17;100820.69;;;15.92;69.74
33075;BME280;19433;51.292;6.868;2022-09-01T00:52:51;100821.03;;;16.02;70.35
33075;BME280;19433;51.292;6.868;2022-09-01T00:55:24;100819.00;;;16.09;70.03
33075;BME280;19433;51.292;6.868;2022-09-01T00:57:51;100823.28;;;16.11;70.40
33075;BME280;19433;51.292;6.868;2022-09-01T01:00:19;100812.81;;;16.07;70.52
33075;BME280;19433;51.292;6.868;2022-09-01T01:02:47;100813.13;;;15.99;71.45
33075;BME280;19433;51.292;6.868;2022-09-01T01:05:13;100824.19;;;15.87;71.91
33075;BME280;19433;51.292;6.868;2022-09-01T01:07:40;100824.94;;;15.76;72.78
33075;BME280;19433;51.292;6.868;2022-09-01T01:10:10;100821.53;;;15.74;72.96
33075;BME280;19433;51.292;6.868;2022-09-01T01:12:39;100810.91;;;15.64;72.40
33075;BME280;19433;51.292;6.868;2022-09-01T01:15:07;100821.16;;;15.70;71.92
33075;BME280;19433;51.292;6.868;2022-09-01T01:17:33;100818.69;;;15.80;70.92
33075;BME280;19433;51.292;6.868;2022-09-01T01:19:59;100819.84;;;15.73;70.64
33075;BME280;19433;51.292;6.868;2022-09-01T01:23:07;100820.53;;;15.68;70.85
33075;BME280;19433;51.292;6.868;2022-09-01T01:25:41;100816.56;;;15.76;70.71
33075;BME280;19433;51.292;6.868;2022-09-01T01:28:18;100817.66;;;15.75;70.24
33075;BME280;19433;51.292;6.868;2022-09-01T01:30:47;100816.22;;;15.72;70.06
33075;BME280;19433;51.292;6.868;2022-09-01T01:33:24;100821.53;;;15.74;70.95
33075;BME280;19433;51.292;6.868;2022-09-01T01:35:52;100823.84;;;15.77;70.58
33075;BME280;19433;51.292;6.868;2022-09-01T01:38:18;100825.56;;;15.78;70.25
33075;BME280;19433;51.292;6.868;2022-09-01T01:40:47;100816.34;;;15.77;70.53
33075;BME280;19433;51.292;6.868;2022-09-01T01:43:12;100831.69;;;15.87;70.02
33075;BME280;19433;51.292;6.868;2022-09-01T01:45:49;100833.03;;;16.02;70.58
33075;BME280;19433;51.292;6.868;2022-09-01T01:48:17;100828.44;;;16.08;69.21
33075;BME280;19433;51.292;6.868;2022-09-01T01:50:47;100835.50;;;16.10;69.56
33075;BME280;19433;51.292;6.868;2022-09-01T01:53:14;100830.38;;;16.07;69.01
33075;BME280;19433;51.292;6.868;2022-09-01T01:55:43;100847.09;;;16.07;70.04
33075;BME280;19433;51.292;6.868;2022-09-01T01:58:08;100834.25;;;16.06;69.74
33075;BME280;19433;51.292;6.868;2022-09-01T02:00:36;100833.16;;;16.07;69.85
33075;BME280;19433;51.292;6.868;2022-09-01T02:03:02;100837.59;;;16.15;70.86
33075;BME280;19433;51.292;6.868;2022-09-01T02:05:30;100844.03;;;16.15;70.92
33075;BME280;19433;51.292;6.868;2022-09-01T02:08:02;100836.53;;;16.16;70.28
33075;BME280;19433;51.292;6.868;2022-09-01T02:10:31;100833.56;;;16.11;70.58
33075;BME280;19433;51.292;6.868;2022-09-01T02:12:58;100829.31;;;16.08;70.20
33075;BME280;19433;51.292;6.868;2022-09-01T02:15:29;100832.94;;;16.09;69.06
33075;BME280;19433;51.292;6.868;2022-09-01T02:17:57;100829.53;;;16.07;69.87
33075;BME280;19433;51.292;6.868;2022-09-01T02:20:24;100837.25;;;16.05;68.91
33075;BME280;19433;51.292;6.868;2022-09-01T02:22:54;100830.38;;;16.07;69.07
33075;BME280;19433;51.292;6.868;2022-09-01T02:25:20;100828.91;;;16.05;69.25
33075;BME280;19433;51.292;6.868;2022-09-01T02:27:46;100831.09;;;16.03;69.74
33075;BME280;19433;51.292;6.868;2022-09-01T02:30:15;100835.72;;;16.09;69.48
33075;BME280;19433;51.292;6.868;2022-09-01T02:32:40;100836.66;;;16.03;69.78
33075;BME280;19433;51.292;6.868;2022-09-01T02:35:20;100829.00;;;15.98;70.43
33075;BME280;19433;51.292;6.868;2022-09-01T02:37:45;100828.75;;;16.00;70.61
33075;BME280;19433;51.292;6.868;2022-09-01T02:40:13;100834.78;;;15.97;70.70
33075;BME280;19433;51.292;6.868;2022-09-01T02:42:39;100827.75;;;15.94;70.56
33075;BME280;19433;51.292;6.868;2022-09-01T02:45:08;100830.06;;;15.97;70.94
33075;BME280;19433;51.292;6.868;2022-09-01T02:47:36;100822.41;;;15.93;70.68
33075;BME280;19433;51.292;6.868;2022-09-01T02:50:05;100834.53;;;15.80;71.04
33075;BME280;19433;51.292;6.868;2022-09-01T02:52:31;100823.94;;;15.70;71.14
33075;BME280;19433;51.292;6.868;2022-09-01T02:55:01;100826.38;;;15.60;71.72
33075;BME280;19433;51.292;6.868;2022-09-01T02:57:27;100818.81;;;15.42;72.07
33075;BME280;19433;51.292;6.868;2022-09-01T02:59:53;100828.94;;;15.37;72.69
33075;BME280;19433;51.292;6.868;2022-09-01T03:02:22;100829.03;;;15.24;74.01
33075;BME280;19433;51.292;6.868;2022-09-01T03:04:53;100828.00;;;15.18;74.56
33075;BME280;19433;51.292;6.868;2022-09-01T03:07:20;100832.03;;;15.22;74.12
33075;BME280;19433;51.292;6.868;2022-09-01T03:09:48;100836.00;;;15.08;74.42
33075;BME280;19433;51.292;6.868;2022-09-01T03:12:14;100829.59;;;15.07;75.19
33075;BME280;19433;51.292;6.868;2022-09-01T03:14:39;100830.03;;;15.04;74.00
33075;BME280;19433;51.292;6.868;2022-09-01T03:17:04;100823.34;;;15.12;74.10
33075;BME280;19433;51.292;6.868;2022-09-01T03:19:30;100833.56;;;15.18;73.36
33075;BME280;19433;51.292;6.868;2022-09-01T03:22:04;100833.00;;;15.09;74.00
33075;BME280;19433;51.292;6.868;2022-09-01T03:24:30;100827.28;;;14.98;74.58
33075;BME280;19433;51.292;6.868;2022-09-01T03:26:56;100835.91;;;14.90;74.95
33075;BME280;19433;51.292;6.868;2022-09-01T03:29:21;100833.16;;;14.83;74.99
33075;BME280;19433;51.292;6.868;2022-09-01T03:31:47;100834.72;;;14.72;75.69
33075;BME280;19433;51.292;6.868;2022-09-01T03:34:12;100836.75;;;14.59;76.37
33075;BME280;19433;51.292;6.868;2022-09-01T03:36:38;100832.91;;;14.53;76.55
33075;BME280;19433;51.292;6.868;2022-09-01T03:39:04;100823.09;;;14.51;76.59
33075;BME280;19433;51.292;6.868;2022-09-01T03:41:30;100823.53;;;14.48;76.44
33075;BME280;19433;51.292;6.868;2022-09-01T03:43:56;100822.25;;;14.37;76.90
33075;BME280;19433;51.292;6.868;2022-09-01T03:46:26;100826.13;;;14.42;76.94
33075;BME280;19433;51.292;6.868;2022-09-01T03:48:57;100819.69;;;14.49;76.96
33075;BME280;19433;51.292;6.868;2022-09-01T03:51:25;100823.50;;;14.54;76.85
33075;BME280;19433;51.292;6.868;2022-09-01T03:53:52;100818.41;;;14.51;77.25
33075;BME280;19433;51.292;6.868;2022-09-01T03:56:22;100814.06;;;14.55;76.01
33075;BME280;19433;51.292;6.868;2022-09-01T03:58:52;100820.97;;;14.46;76.65
33075;BME280;19433;51.292;6.868;2022-09-01T04:01:18;100810.34;;;14.30;77.13
33075;BME280;19433;51.292;6.868;2022-09-01T04:03:44;100811.41;;;14.22;77.51
33075;BME280;19433;51.292;6.868;2022-09-01T04:06:11;100810.22;;;14.05;78.54
33075;BME280;19433;51.292;6.868;2022-09-01T04:08:37;100806.97;;;14.15;78.47
33075;BME280;19433;51.292;6.868;2022-09-01T04:11:11;100803.13;;;14.16;78.17
33075;BME280;19433;51.292;6.868;2022-09-01T04:13:39;100812.75;;;14.06;78.73
33075;BME280;19433;51.292;6.868;2022-09-01T04:16:05;100813.16;;;14.17;78.60
33075;BME280;19433;51.292;6.868;2022-09-01T04:18:35;100810.25;;;13.98;78.87
33075;BME280;19433;51.292;6.868;2022-09-01T04:21:00;100806.19;;;13.94;78.85
33075;BME280;19433;51.292;6.868;2022-09-01T04:23:31;100810.88;;;13.94;78.96
33075;BME280;19433;51.292;6.868;2022-09-01T04:26:06;100811.31;;;13.91;79.51
33075;BME280;19433;51.292;6.868;2022-09-01T04:28:46;100810.50;;;13.84;79.97
33075;BME280;19433;51.292;6.868;2022-09-01T04:31:15;100818.41;;;13.80;79.93
33075;BME280;19433;51.292;6.868;2022-09-01T04:33:43;100806.25;;;13.75;79.98
33075;BME280;19433;51.292;6.868;2022-09-01T04:36:25;100802.84;;;13.72;80.34
33075;BME280;19433;51.292;6.868;2022-09-01T04:38:54;100817.53;;;13.80;80.71
33075;BME280;19433;51.292;6.868;2022-09-01T04:41:20;100807.06;;;13.75;80.32
33075;BME280;19433;51.292;6.868;2022-09-01T04:43:48;100806.69;;;13.71;80.57
33075;BME280;19433;51.292;6.868;2022-09-01T04:46:17;100809.88;;;13.68;80.52
33075;BME280;19433;51.292;6.868;2022-09-01T04:48:43;100816.94;;;13.64;80.85
33075;BME280;19433;51.292;6.868;2022-09-01T04:51:10;100810.34;;;13.59;81.12
33075;BME280;19433;51.292;6.868;2022-09-01T04:53:37;100813.53;;;13.56;81.23
33075;BME280;19433;51.292;6.868;2022-09-01T04:56:04;100809.25;;;13.47;81.41
33075;BME280;19433;51.292;6.868;2022-09-01T04:58:29;100800.31;;;13.45;82.09
33075;BME280;19433;51.292;6.868;2022-09-01T05:00:54;100808.00;;;13.43;81.96
33075;BME280;19433;51.292;6.868;2022-09-01T05:03:20;100813.75;;;13.48;82.30
33075;BME280;19433;51.292;6.868;2022-09-01T05:05:48;100819.09;;;13.56;81.89
33075;BME280;19433;51.292;6.868;2022-09-01T05:08:17;100815.03;;;13.52;81.83
33075;BME280;19433;51.292;6.868;2022-09-01T05:10:46;100805.44;;;13.48;82.09
33075;BME280;19433;51.292;6.868;2022-09-01T05:13:15;100810.34;;;13.59;81.95
33075;BME280;19433;51.292;6.868;2022-09-01T05:15:44;100819.72;;;13.64;81.69
33075;BME280;19433;51.292;6.868;2022-09-01T05:18:17;100825.47;;;13.63;81.13
33075;BME280;19433;51.292;6.868;2022-09-01T05:20:48;100820.81;;;13.57;81.71
33075;BME280;19433;51.292;6.868;2022-09-01T05:23:14;100816.53;;;13.54;81.85
33075;BME280;19433;51.292;6.868;2022-09-01T05:25:43;100820.59;;;13.58;82.19
33075;BME280;19433;51.292;6.868;2022-09-01T05:28:10;100817.38;;;13.55;82.79
33075;BME280;19433;51.292;6.868;2022-09-01T05:30:38;100815.66;;;13.60;82.21
33075;BME280;19433;51.292;6.868;2022-09-01T05:33:05;100823.97;;;13.60;82.06
33075;BME280;19433;51.292;6.868;2022-09-01T05:35:40;100828.47;;;13.68;81.90
33075;BME280;19433;51.292;6.868;2022-09-01T05:38:08;100817.38;;;13.75;81.83
33075;BME280;19433;51.292;6.868;2022-09-01T05:40:38;100828.00;;;13.78;81.24
33075;BME280;19433;51.292;6.868;2022-09-01T05:43:06;100825.66;;;13.81;80.90
33075;BME280;19433;51.292;6.868;2022-09-01T05:45:34;100831.66;;;13.85;80.98
33075;BME280;19433;51.292;6.868;2022-09-01T05:48:00;100836.53;;;14.02;81.07
33075;BME280;19433;51.292;6.868;2022-09-01T05:50:27;100830.72;;;14.11;79.91
33075;BME280;19433;51.292;6.868;2022-09-01T05:52:52;100833.25;;;14.19;79.58
33075;BME280;19433;51.292;6.868;2022-09-01T05:55:17;100835.13;;;14.31;78.55
33075;BME280;19433;51.292;6.868;2022-09-01T05:57:43;100842.78;;;14.49;77.66
33075;BME280;19433;51.292;6.868;2022-09-01T06:00:12;100839.31;;;14.60;77.49
33075;BME280;19433;51.292;6.868;2022-09-01T06:02:38;100833.03;;;14.71;76.74
33075;BME280;19433;51.292;6.868;2022-09-01T06:05:05;100842.56;;;14.89;75.80
33075;BME280;19433;51.292;6.868;2022-09-01T06:07:31;100847.16;;;15.01;75.22
33075;BME280;19433;51.292;6.868;2022-09-01T06:09:56;100842.84;;;15.12;74.93
33075;BME280;19433;51.292;6.868;2022-09-01T06:12:22;100841.50;;;15.14;75.40
33075;BME280;19433;51.292;6.868;2022-09-01T06:14:49;100834.88;;;15.16;75.00
33075;BME280;19433;51.292;6.868;2022-09-01T06:17:16;100844.88;;;15.23;75.20
33075;BME280;19433;51.292;6.868;2022-09-01T06:19:46;100841.25;;;15.23;74.37
33075;BME280;19433;51.292;6.868;2022-09-01T06:22:12;100846.97;;;15.28;74.00
33075;BME280;19433;51.292;6.868;2022-09-01T06:24:38;100843.91;;;15.36;74.78
33075;BME280;19433;51.292;6.868;2022-09-01T06:27:08;100849.59;;;15.47;73.43
33075;BME280;19433;51.292;6.868;2022-09-01T06:29:37;100849.13;;;15.57;73.15
33075;BME280;19433;51.292;6.868;2022-09-01T06:32:07;100847.13;;;15.64;72.92
33075;BME280;19433;51.292;6.868;2022-09-01T06:34:34;100847.16;;;15.82;72.26
33075;BME280;19433;51.292;6.868;2022-09-01T06:37:00;100846.25;;;16.07;70.63
33075;BME280;19433;51.292;6.868;2022-09-01T06:39:25;100849.84;;;16.32;70.12
33075;BME280;19433;51.292;6.868;2022-09-01T06:41:50;100858.16;;;17.29;66.91
33075;BME280;19433;51.292;6.868;2022-09-01T06:44:20;100857.59;;;19.57;57.67
33075;BME280;19433;51.292;6.868;2022-09-01T06:46:50;100870.84;;;20.72;51.12
33075;BME280;19433;51.292;6.868;2022-09-01T06:49:16;100870.09;;;22.31;47.80
33075;BME280;19433;51.292;6.868;2022-09-01T06:51:42;100873.41;;;23.94;43.27
33075;BME280;19433;51.292;6.868;2022-09-01T06:54:08;100870.94;;;24.87;39.23
33075;BME280;19433;51.292;6.868;2022-09-01T06:56:36;100871.53;;;24.79;38.82
33075;BME280;19433;51.292;6.868;2022-09-01T06:59:01;100879.41;;;24.87;38.12
33075;BME280;19433;51.292;6.868;2022-09-01T07:01:30;100875.19;;;25.39;37.64
33075;BME280;19433;51.292;6.868;2022-09-01T07:03:55;100881.28;;;25.95;36.66
33075;BME280;19433;51.292;6.868;2022-09-01T07:06:23;100873.84;;;26.04;36.93
33075;BME280;19433;51.292;6.868;2022-09-01T07:08:57;100879.56;;;26.57;34.71
33075;BME280;19433;51.292;6.868;2022-09-01T07:11:26;100883.81;;;28.28;33.22
33075;BME280;19433;51.292;6.868;2022-09-01T07:13:59;100887.72;;;28.32;30.76
33075;BME280;19433;51.292;6.868;2022-09-01T07:16:27;100893.25;;;28.56;31.51
33075;BME280;19433;51.292;6.868;2022-09-01T07:18:55;100897.00;;;28.38;31.21
33075;BME280;19433;51.292;6.868;2022-09-01T07:21:22;100898.97;;;28.24;31.28
33075;BME280;19433;51.292;6.868;2022-09-01T07:23:48;100906.34;;;28.98;29.83
33075;BME280;19433;51.292;6.868;2022-09-01T07:26:13;100903.25;;;29.72;29.51
33075;BME280;19433;51.292;6.868;2022-09-01T07:28:44;100907.66;;;30.76;27.25
33075;BME280;19433;51.292;6.868;2022-09-01T07:31:17;100900.88;;;30.55;28.28
33075;BME280;19433;51.292;6.868;2022-09-01T07:33:45;100905.59;;;28.93;28.14
33075;BME280;19433;51.292;6.868;2022-09-01T07:36:13;100906.13;;;28.21;29.71
33075;BME280;19433;51.292;6.868;2022-09-01T07:38:38;100902.84;;;29.15;30.84
33075;BME280;19433;51.292;6.868;2022-09-01T07:41:04;100913.97;;;30.64;26.59
33075;BME280;19433;51.292;6.868;2022-09-01T07:43:29;100907.50;;;31.21;26.60
33075;BME280;19433;51.292;6.868;2022-09-01T07:45:56;100906.91;;;32.01;24.56
33075;BME280;19433;51.292;6.868;2022-09-01T07:48:25;100904.72;;;30.98;25.84
33075;BME280;19433;51.292;6.868;2022-09-01T07:50:53;100905.31;;;30.78;27.26
33075;BME280;19433;51.292;6.868;2022-09-01T07:53:32;100895.84;;;32.55;25.57
33075;BME280;19433;51.292;6.868;2022-09-01T07:56:03;100914.19;;;33.39;22.64
33075;BME280;19433;51.292;6.868;2022-09-01T07:58:32;100906.53;;;32.29;24.51
33075;BME280;19433;51.292;6.868;2022-09-01T08:00:58;100916.94;;;33.77;23.18
33075;BME280;19433;51.292;6.868;2022-09-01T08:03:26;100916.31;;;33.92;22.39
33075;BME280;19433;51.292;6.868;2022-09-01T08:05:52;100914.88;;;35.34;20.78
33075;BME280;19433;51.292;6.868;2022-09-01T08:08:22;100915.06;;;34.68;20.34
33075;BME280;19433;51.292;6.868;2022-09-01T08:10:48;100904.16;;;34.73;22.29
33075;BME280;19433;51.292;6.868;2022-09-01T08:13:14;100914.53;;;33.87;22.23
33075;BME280;19433;51.292;6.868;2022-09-01T08:15:40;100907.13;;;32.69;23.89
33075;BME280;19433;51.292;6.868;2022-09-01T08:18:06;100910.03;;;32.98;21.76
33075;BME280;19433;51.292;6.868;2022-09-01T08:20:33;100911.22;;;32.97;21.98
33075;BME280;19433;51.292;6.868;2022-09-01T08:23:04;100914.09;;;33.98;21.50
33075;BME280;19433;51.292;6.868;2022-09-01T08:25:30;100918.41;;;33.41;21.29
33075;BME280;19433;51.292;6.868;2022-09-01T08:27:57;100917.31;;;33.46;21.53
33075;BME280;19433;51.292;6.868;2022-09-01T08:30:23;100911.28;;;35.12;20.38
33075;BME280;19433;51.292;6.868;2022-09-01T08:32:50;100914.63;;;33.49;21.30
33075;BME280;19433;51.292;6.868;2022-09-01T08:35:17;100909.00;;;34.94;20.28
33075;BME280;19433;51.292;6.868;2022-09-01T08:37:43;100909.44;;;35.69;20.54
33075;BME280;19433;51.292;6.868;2022-09-01T08:40:12;100911.63;;;34.86;18.30
33075;BME280;19433;51.292;6.868;2022-09-01T08:43:05;100906.75;;;34.42;20.45
33075;BME280;19433;51.292;6.868;2022-09-01T08:46:13;100905.69;;;35.80;17.84
33075;BME280;19433;51.292;6.868;2022-09-01T08:48:45;100913.78;;;36.74;17.59
33075;BME280;19433;51.292;6.868;2022-09-01T08:51:15;100920.34;;;35.63;18.60
33075;BME280;19433;51.292;6.868;2022-09-01T08:56:34;100916.03;;;37.12;17.26
33075;BME280;19433;51.292;6.868;2022-09-01T08:59:01;100907.56;;;35.00;18.47
33075;BME280;19433;51.292;6.868;2022-09-01T09:01:47;100905.59;;;35.77;17.38
33075;BME280;19433;51.292;6.868;2022-09-01T09:04:25;100913.97;;;37.28;17.09
33075;BME280;19433;51.292;6.868;2022-09-01T09:07:04;100908.59;;;37.11;17.52
33075;BME280;19433;51.292;6.868;2022-09-01T09:09:47;100907.94;;;35.10;16.37
33075;BME280;19433;51.292;6.868;2022-09-01T09:15:42;100906.03;;;35.27;16.98
33075;BME280;19433;51.292;6.868;2022-09-01T09:18:15;100910.97;;;37.41;15.91
33075;BME280;19433;51.292;6.868;2022-09-01T09:20:44;100907.66;;;35.52;16.46
33075;BME280;19433;51.292;6.868;2022-09-01T09:23:30;100904.97;;;37.65;16.17
33075;BME280;19433;51.292;6.868;2022-09-01T09:25:58;100905.69;;;37.43;15.91
33075;BME280;19433;51.292;6.868;2022-09-01T09:28:23;100899.44;;;36.46;15.76
33075;BME280;19433;51.292;6.868;2022-09-01T09:30:48;100898.59;;;36.46;14.95
33075;BME280;19433;51.292;6.868;2022-09-01T09:33:36;100890.50;;;35.80;16.22
33075;BME280;19433;51.292;6.868;2022-09-01T09:36:23;100889.88;;;36.58;16.84
33075;BME280;19433;51.292;6.868;2022-09-01T09:39:13;100885.56;;;36.08;16.15
33075;BME280;19433;51.292;6.868;2022-09-01T09:41:41;100889.81;;;36.86;16.10
33075;BME280;19433;51.292;6.868;2022-09-01T09:44:27;100886.16;;;36.57;15.47
33075;BME280;19433;51.292;6.868;2022-09-01T09:46:54;100893.38;;;37.81;14.87
33075;BME280;19433;51.292;6.868;2022-09-01T09:49:30;100888.97;;;38.25;15.28
33075;BME280;19433;51.292;6.868;2022-09-01T09:54:29;100880.97;;;38.38;14.81
33075;BME280;19433;51.292;6.868;2022-09-01T09:57:20;100884.53;;;39.76;13.79
33075;BME280;19433;51.292;6.868;2022-09-01T09:59:49;100881.22;;;40.74;13.72
33075;BME280;19433;51.292;6.868;2022-09-01T10:04:50;100885.97;;;41.51;12.63
33075;BME280;19433;51.292;6.868;2022-09-01T10:07:34;100865.19;;;39.23;13.84
33075;BME280;19433;51.292;6.868;2022-09-01T10:10:04;100863.31;;;39.12;13.97
33075;BME280;19433;51.292;6.868;2022-09-01T10:12:30;100862.16;;;39.99;13.29
33075;BME280;19433;51.292;6.868;2022-09-01T10:15:07;100856.16;;;37.95;14.55
33075;BME280;19433;51.292;6.868;2022-09-01T10:17:39;100871.50;;;41.55;12.41
33075;BME280;19433;51.292;6.868;2022-09-01T10:20:16;100862.59;;;41.26;13.01
33075;BME280;19433;51.292;6.868;2022-09-01T10:22:43;100852.69;;;38.47;14.01
33075;BME280;19433;51.292;6.868;2022-09-01T10:25:14;100844.63;;;39.88;13.14
33075;BME280;19433;51.292;6.868;2022-09-01T10:27:43;100846.09;;;40.83;13.41
33075;BME280;19433;51.292;6.868;2022-09-01T10:30:14;100843.31;;;40.16;13.75
33075;BME280;19433;51.292;6.868;2022-09-01T10:32:43;100843.78;;;38.33;13.92
33075;BME280;19433;51.292;6.868;2022-09-01T10:35:16;100837.63;;;39.59;13.42
33075;BME280;19433;51.292;6.868;2022-09-01T10:37:45;100835.16;;;39.05;13.30
33075;BME280;19433;51.292;6.868;2022-09-01T10:42:54;100840.97;;;40.28;12.82
33075;BME280;19433;51.292;6.868;2022-09-01T10:50:49;100837.50;;;43.06;10.77
33075;BME280;19433;51.292;6.868;2022-09-01T10:56:24;100816.06;;;36.66;15.04
33075;BME280;19433;51.292;6.868;2022-09-01T11:09:45;100814.56;;;39.96;13.90
33075;BME280;19433;51.292;6.868;2022-09-01T11:14:53;100816.94;;;39.87;14.08
33075;BME280;19433;51.292;6.868;2022-09-01T11:17:26;100821.59;;;39.09;14.03
33075;BME280;19433;51.292;6.868;2022-09-01T11:20:08;100823.44;;;41.57;11.68
33075;BME280;19433;51.292;6.868;2022-09-01T11:22:45;100822.09;;;42.52;11.60
33075;BME280;19433;51.292;6.868;2022-09-01T11:30:33;100804.91;;;40.22;12.89
33075;BME280;19433;51.292;6.868;2022-09-01T11:33:10;100811.78;;;40.44;12.53
33075;BME280;19433;51.292;6.868;2022-09-01T11:35:36;100794.25;;;35.89;15.40
33075;BME280;19433;51.292;6.868;2022-09-01T11:38:05;100795.59;;;36.23;16.45
33075;BME280;19433;51.292;6.868;2022-09-01T11:40:33;100787.91;;;37.45;14.97
33075;BME280;19433;51.292;6.868;2022-09-01T11:43:03;100796.13;;;39.45;13.12
33075;BME280;19433;51.292;6.868;2022-09-01T11:45:31;100799.19;;;40.70;12.02
33075;BME280;19433;51.292;6.868;2022-09-01T11:48:05;100803.28;;;41.96;12.34
33075;BME280;19433;51.292;6.868;2022-09-01T11:50:34;100803.47;;;40.39;12.27
33075;BME280;19433;51.292;6.868;2022-09-01T11:53:06;100798.97;;;41.55;12.81
33075;BME280;19433;51.292;6.868;2022-09-01T11:55:41;100790.00;;;39.83;12.39
33075;BME280;19433;51.292;6.868;2022-09-01T11:58:29;100787.56;;;37.65;14.87
33075;BME280;19433;51.292;6.868;2022-09-01T12:01:11;100760.38;;;31.66;19.54
33075;BME280;19433;51.292;6.868;2022-09-01T12:03:37;100760.34;;;30.97;20.37
33075;BME280;19433;51.292;6.868;2022-09-01T12:06:04;100764.84;;;33.28;18.04
33075;BME280;19433;51.292;6.868;2022-09-01T12:08:35;100768.91;;;35.95;15.70
33075;BME280;19433;51.292;6.868;2022-09-01T12:11:18;100768.88;;;37.21;14.35
33075;BME280;19433;51.292;6.868;2022-09-01T12:13:55;100775.34;;;36.83;14.76
33075;BME280;19433;51.292;6.868;2022-09-01T12:16:21;100758.88;;;35.33;16.12
33075;BME280;19433;51.292;6.868;2022-09-01T12:18:49;100745.88;;;32.65;18.22
33075;BME280;19433;51.292;6.868;2022-09-01T12:21:24;100734.34;;;32.53;18.72
33075;BME280;19433;51.292;6.868;2022-09-01T12:23:50;100729.97;;;31.19;20.62
33075;BME280;19433;51.292;6.868;2022-09-01T12:26:21;100733.97;;;31.52;20.25
33075;BME280;19433;51.292;6.868;2022-09-01T12:28:48;100726.69;;;30.12;21.79
33075;BME280;19433;51.292;6.868;2022-09-01T12:31:18;100720.94;;;31.17;20.89
33075;BME280;19433;51.292;6.868;2022-09-01T12:33:45;100733.78;;;32.30;19.60
33075;BME280;19433;51.292;6.868;2022-09-01T12:36:26;100734.13;;;32.87;18.48
33075;BME280;19433;51.292;6.868;2022-09-01T12:38:54;100729.22;;;31.91;19.33
33075;BME280;19433;51.292;6.868;2022-09-01T12:41:33;100726.56;;;31.77;20.05
33075;BME280;19433;51.292;6.868;2022-09-01T12:45:00;100728.59;;;33.24;18.92
33075;BME280;19433;51.292;6.868;2022-09-01T12:47:09;100730.56;;;33.85;17.60
33075;BME280;19433;51.292;6.868;2022-09-01T12:49:40;100724.38;;;34.69;18.71
33075;BME280;19433;51.292;6.868;2022-09-01T12:54:50;100725.72;;;37.24;14.82
33075;BME280;19433;51.292;6.868;2022-09-01T12:57:27;100733.19;;;37.10;15.23
33075;BME280;19433;51.292;6.868;2022-09-01T13:02:40;100709.91;;;35.30;16.09
33075;BME280;19433;51.292;6.868;2022-09-01T13:05:22;100720.69;;;35.88;16.08
33075;BME280;19433;51.292;6.868;2022-09-01T13:07:48;100727.34;;;37.06;16.04
33075;BME280;19433;51.292;6.868;2022-09-01T13:10:14;100717.88;;;36.55;16.18
33075;BME280;19433;51.292;6.868;2022-09-01T13:12:43;100715.31;;;36.85;15.66
33075;BME280;19433;51.292;6.868;2022-09-01T13:15:10;100721.97;;;36.07;16.61
33075;BME280;19433;51.292;6.868;2022-09-01T13:17:35;100716.06;;;36.47;16.12
33075;BME280;19433;51.292;6.868;2022-09-01T13:20:05;100709.69;;;35.78;16.53
33075;BME280;19433;51.292;6.868;2022-09-01T13:22:33;100695.63;;;32.17;19.90
33075;BME280;19433;51.292;6.868;2022-09-01T13:24:59;100682.78;;;31.30;21.21
33075;BME280;19433;51.292;6.868;2022-09-01T13:27:24;100686.84;;;33.23;19.83
33075;BME280;19433;51.292;6.868;2022-09-01T13:29:51;100675.50;;;32.93;19.92
33075;BME280;19433;51.292;6.868;2022-09-01T13:32:17;100667.38;;;35.07;18.34
33075;BME280;19433;51.292;6.868;2022-09-01T13:34:43;100688.59;;;36.69;16.95
33075;BME280;19433;51.292;6.868;2022-09-01T13:37:08;100688.03;;;37.33;15.21
33075;BME280;19433;51.292;6.868;2022-09-01T13:39:36;100682.00;;;36.02;16.01
33075;BME280;19433;51.292;6.868;2022-09-01T13:42:03;100676.59;;;35.01;17.92
33075;BME280;19433;51.292;6.868;2022-09-01T13:44:28;100667.56;;;35.27;18.27
33075;BME280;19433;51.292;6.868;2022-09-01T13:46:53;100667.28;;;35.04;19.55
33075;BME280;19433;51.292;6.868;2022-09-01T13:49:19;100650.56;;;34.29;19.62